sensor_id;sensor_type;location;lat;lon;timestamp;pressure;altitude;pressure_sealevel;temperature;humidity
17635;BME280;8936;49.010;12.120;2023-08-12T00:00:13;98363.44;;;23.44;100.00
17635;BME280;8936;49.010;12.120;2023-08-12T00:02:40;98360.94;;;23.39;100.00
17635;BME280;8936;49.010;12.120;2023-08-12T00:05:07;98356.66;;;23.50;100.00
17635;BME280;8936;49.010;12.120;2023-08-12T00:07:37;98359.47;;;23.42;100.00
17635;BME280;8936;49.010;12.120;2023-08-12T00:10:04;98355.41;;;23.27;100.00
17635;BME280;8936;49.010;12.120;2023-08-12T00:12:31;98350.41;;;23.29;100.00
17635;BME280;8936;49.010;12.120;2023-08-12T00:14:57;98346.81;;;23.37;100.00
17635;BME280;8936;49.010;12.120;2023-08-12T00:17:24;98349.09;;;23.35;100.00
17635;BME280;8936;49.010;12.120;2023-08-12T00:19:50;98339.78;;;23.36;100.00
17635;BME280;8936;49.010;12.120;2023-08-12T00:22:17;98340.03;;;23.43;100.00
17635;BME280;8936;49.010;12.120;2023-08-12T00:24:44;98349.88;;;23.36;100.00
17635;BME280;8936;49.010;12.120;2023-08-12T00:27:11;98336.41;;;23.39;100.00
17635;BME280;8936;49.010;12.120;2023-08-12T00:29:37;98338.47;;;23.42;100.00
17635;BME280;8936;49.010;12.120;2023-08-12T00:32:04;98349.50;;;23.25;100.00
17635;BME280;8936;49.010;12.120;2023-08-12T00:34:30;98345.59;;;23.14;100.00
17635;BME280;8936;49.010;12.120;2023-08-12T00:40:00;98338.03;;;22.99;100.00
17635;BME280;8936;49.010;12.120;2023-08-12T00:42:27;98333.97;;;23.05;100.00
17635;BME280;8936;49.010;12.120;2023-08-12T00:44:53;98337.41;;;23.14;100.00
17635;BME280;8936;49.010;12.120;2023-08-12T00:47:20;98341.84;;;23.19;100.00
17635;BME280;8936;49.010;12.120;2023-08-12T00:49:46;98336.97;;;23.24;100.00
17635;BME280;8936;49.010;12.120;2023-08-12T00:52:13;98336.97;;;23.24;100.00
17635;BME280;8936;49.010;12.120;2023-08-12T00:54:40;98341.53;;;23.20;100.00
17635;BME280;8936;49.010;12.120;2023-08-12T00:57:08;98335.81;;;23.13;100.00
17635;BME280;8936;49.010;12.120;2023-08-12T00:59:35;98341.72;;;23.15;100.00
17635;BME280;8936;49.010;12.120;2023-08-12T01:02:02;98335.81;;;23.13;100.00
17635;BME280;8936;49.010;12.120;2023-08-12T01:04:29;98337.28;;;23.10;100.00
17635;BME280;8936;49.010;12.120;2023-08-12T01:06:55;98331.00;;;22.98;100.00
17635;BME280;8936;49.010;12.120;2023-08-12T01:09:22;98338.44;;;22.89;100.00
17635;BME280;8936;49.010;12.120;2023-08-12T01:11:50;98329.88;;;22.99;100.00
17635;BME280;8936;49.010;12.120;2023-08-12T01:14:22;98334.50;;;22.98;100.00
17635;BME280;8936;49.010;12.120;2023-08-12T01:16:51;98322.63;;;22.82;100.00
17635;BME280;8936;49.010;12.120;2023-08-12T01:19:21;98325.81;;;22.84;100.00
17635;BME280;8936;49.010;12.120;2023-08-12T01:21:49;98318.44;;;22.85;100.00
17635;BME280;8936;49.010;12.120;2023-08-12T01:24:20;98316.50;;;22.85;100.00
17635;BME280;8936;49.010;12.120;2023-08-12T01:26:47;98307.81;;;22.71;100.00
17635;BME280;8936;49.010;12.120;2023-08-12T01:29:14;98320.50;;;22.67;100.00
17635;BME280;8936;49.010;12.120;2023-08-12T01:31:42;98305.03;;;22.80;100.00
17635;BME280;8936;49.010;12.120;2023-08-12T01:34:12;98308.06;;;22.78;100.00
17635;BME280;8936;49.010;12.120;2023-08-12T01:36:42;98305.09;;;22.71;100.00
17635;BME280;8936;49.010;12.120;2023-08-12T01:39:12;98295.91;;;22.76;100.00
17635;BME280;8936;49.010;12.120;2023-08-12T01:41:40;98303.63;;;22.74;100.00
17635;BME280;8936;49.010;12.120;2023-08-12T01:44:06;98303.81;;;22.69;100.00
17635;BME280;8936;49.010;12.120;2023-08-12T01:46:33;98289.75;;;22.67;100.00
17635;BME280;8936;49.010;12.120;2023-08-12T01:48:59;98298.75;;;22.58;100.00
17635;BME280;8936;49.010;12.120;2023-08-12T01:51:26;98292.66;;;22.62;100.00
17635;BME280;8936;49.010;12.120;2023-08-12T01:53:52;98292.25;;;22.72;100.00
17635;BME280;8936;49.010;12.120;2023-08-12T01:56:18;98280.47;;;22.68;100.00
17635;BME280;8936;49.010;12.120;2023-08-12T01:58:46;98284.00;;;22.59;100.00
17635;BME280;8936;49.010;12.120;2023-08-12T02:01:12;98290.91;;;22.57;100.00
17635;BME280;8936;49.010;12.120;2023-08-12T02:03:39;98285.19;;;22.50;100.00
17635;BME280;8936;49.010;12.120;2023-08-12T02:06:05;98286.41;;;22.40;100.00
17635;BME280;8936;49.010;12.120;2023-08-12T02:08:31;98277.75;;;22.38;100.00
17635;BME280;8936;49.010;12.120;2023-08-12T02:10:58;98284.81;;;22.39;100.00
17635;BME280;8936;49.010;12.120;2023-08-12T02:13:24;98283.06;;;22.35;100.00
17635;BME280;8936;49.010;12.120;2023-08-12T02:15:52;98281.34;;;22.30;100.00
17635;BME280;8936;49.010;12.120;2023-08-12T02:18:18;98275.69;;;22.35;100.00
17635;BME280;8936;49.010;12.120;2023-08-12T02:20:46;98287.25;;;22.32;100.00
17635;BME280;8936;49.010;12.120;2023-08-12T02:23:12;98276.72;;;22.22;100.00
17635;BME280;8936;49.010;12.120;2023-08-12T02:25:39;98269.56;;;22.18;100.00
17635;BME280;8936;49.010;12.120;2023-08-12T02:28:05;98273.91;;;22.19;100.00
17635;BME280;8936;49.010;12.120;2023-08-12T02:30:31;98273.91;;;22.19;100.00
17635;BME280;8936;49.010;12.120;2023-08-12T02:32:59;98272.63;;;22.16;100.00
17635;BME280;8936;49.010;12.120;2023-08-12T02:35:26;98269.66;;;22.30;100.00
17635;BME280;8936;49.010;12.120;2023-08-12T02:37:52;98264.00;;;22.35;100.00
17635;BME280;8936;49.010;12.120;2023-08-12T02:40:18;98262.75;;;22.32;100.00
17635;BME280;8936;49.010;12.120;2023-08-12T02:42:45;98259.22;;;22.32;100.00
17635;BME280;8936;49.010;12.120;2023-08-12T02:45:11;98262.00;;;22.23;100.00
17635;BME280;8936;49.010;12.120;2023-08-12T02:47:37;98255.59;;;22.28;100.00
17635;BME280;8936;49.010;12.120;2023-08-12T02:50:06;98252.25;;;22.22;100.00
17635;BME280;8936;49.010;12.120;2023-08-12T02:52:32;98256.34;;;22.08;100.00
17635;BME280;8936;49.010;12.120;2023-08-12T02:54:59;98253.19;;;22.05;100.00
17635;BME280;8936;49.010;12.120;2023-08-12T02:57:25;98248.69;;;22.10;100.00
17635;BME280;8936;49.010;12.120;2023-08-12T02:59:51;98237.91;;;21.84;100.00
17635;BME280;8936;49.010;12.120;2023-08-12T03:02:18;98237.75;;;21.42;100.00
17635;BME280;8936;49.010;12.120;2023-08-12T03:04:44;98243.53;;;21.32;100.00
17635;BME280;8936;49.010;12.120;2023-08-12T03:07:12;98242.94;;;21.27;100.00
17635;BME280;8936;49.010;12.120;2023-08-12T03:09:38;98244.38;;;21.24;100.00
17635;BME280;8936;49.010;12.120;2023-08-12T03:12:05;98247.03;;;21.50;100.00
17635;BME280;8936;49.010;12.120;2023-08-12T03:14:31;98242.75;;;21.70;100.00
17635;BME280;8936;49.010;12.120;2023-08-12T03:16:58;98252.63;;;21.83;100.00
17635;BME280;8936;49.010;12.120;2023-08-12T03:19:24;98252.59;;;21.91;100.00
17635;BME280;8936;49.010;12.120;2023-08-12T03:21:50;98256.59;;;21.94;100.00
17635;BME280;8936;49.010;12.120;2023-08-12T03:24:18;98252.75;;;21.95;100.00
17635;BME280;8936;49.010;12.120;2023-08-12T03:26:44;98253.88;;;21.94;100.00
17635;BME280;8936;49.010;12.120;2023-08-12T03:29:11;98257.59;;;21.81;100.00
17635;BME280;8936;49.010;12.120;2023-08-12T03:31:37;98242.59;;;21.75;100.00
17635;BME280;8936;49.010;12.120;2023-08-12T03:34:03;98242.22;;;21.85;100.00
17635;BME280;8936;49.010;12.120;2023-08-12T03:36:30;98243.81;;;21.86;100.00
17635;BME280;8936;49.010;12.120;2023-08-12T03:38:56;98245.25;;;21.92;100.00
17635;BME280;8936;49.010;12.120;2023-08-12T03:41:24;98241.72;;;21.91;100.00
17635;BME280;8936;49.010;12.120;2023-08-12T03:43:50;98242.75;;;21.70;100.00
17635;BME280;8936;49.010;12.120;2023-08-12T03:46:17;98236.00;;;21.46;100.00
17635;BME280;8936;49.010;12.120;2023-08-12T03:48:43;98241.03;;;21.19;100.00
17635;BME280;8936;49.010;12.120;2023-08-12T03:51:09;98238.59;;;21.34;100.00
17635;BME280;8936;49.010;12.120;2023-08-12T03:53:36;98232.94;;;21.48;100.00
17635;BME280;8936;49.010;12.120;2023-08-12T03:56:02;98227.81;;;21.55;100.00
17635;BME280;8936;49.010;12.120;2023-08-12T03:58:30;98228.59;;;21.56;100.00
17635;BME280;8936;49.010;12.120;2023-08-12T04:00:57;98227.00;;;21.54;100.00
17635;BME280;8936;49.010;12.120;2023-08-12T04:03:24;98232.94;;;21.48;100.00
17635;BME280;8936;49.010;12.120;2023-08-12T04:05:50;98238.22;;;21.53;100.00
17635;BME280;8936;49.010;12.120;2023-08-12T04:08:17;98238.69;;;21.55;100.00
17635;BME280;8936;49.010;12.120;2023-08-12T04:10:44;98242.84;;;21.52;100.00
17635;BME280;8936;49.010;12.120;2023-08-12T04:13:11;98242.03;;;21.52;100.00
17635;BME280;8936;49.010;12.120;2023-08-12T04:15:38;98246.53;;;21.48;100.00
17635;BME280;8936;49.010;12.120;2023-08-12T04:18:05;98241.91;;;21.48;100.00
17635;BME280;8936;49.010;12.120;2023-08-12T04:20:32;98253.25;;;21.42;100.00
17635;BME280;8936;49.010;12.120;2023-08-12T04:22:58;98246.25;;;21.41;100.00
17635;BME280;8936;49.010;12.120;2023-08-12T04:25:25;98241.28;;;21.43;100.00
17635;BME280;8936;49.010;12.120;2023-08-12T04:27:51;98244.19;;;21.38;100.00
17635;BME280;8936;49.010;12.120;2023-08-12T04:30:18;98258.88;;;21.37;100.00
17635;BME280;8936;49.010;12.120;2023-08-12T04:32:45;98253.16;;;21.38;100.00
17635;BME280;8936;49.010;12.120;2023-08-12T04:35:12;98265.94;;;21.38;100.00
17635;BME280;8936;49.010;12.120;2023-08-12T04:37:38;98258.09;;;21.36;100.00
17635;BME280;8936;49.010;12.120;2023-08-12T04:40:05;98256.47;;;21.35;100.00
17635;BME280;8936;49.010;12.120;2023-08-12T04:42:32;98254.25;;;21.37;100.00
17635;BME280;8936;49.010;12.120;2023-08-12T04:44:59;98254.69;;;21.48;100.00
17635;BME280;8936;49.010;12.120;2023-08-12T04:47:25;98252.00;;;21.39;100.00
17635;BME280;8936;49.010;12.120;2023-08-12T04:49:53;98255.56;;;21.31;100.00
17635;BME280;8936;49.010;12.120;2023-08-12T04:52:19;98242.09;;;21.43;100.00
17635;BME280;8936;49.010;12.120;2023-08-12T04:54:46;98248.03;;;21.37;100.00
17635;BME280;8936;49.010;12.120;2023-08-12T04:57:12;98240.34;;;21.39;100.00
17635;BME280;8936;49.010;12.120;2023-08-12T04:59:39;98236.53;;;21.31;100.00
17635;BME280;8936;49.010;12.120;2023-08-12T05:02:06;98239.41;;;21.35;100.00
17635;BME280;8936;49.010;12.120;2023-08-12T05:04:32;98241.00;;;21.27;100.00
17635;BME280;8936;49.010;12.120;2023-08-12T05:07:00;98241.69;;;21.16;100.00
17635;BME280;8936;49.010;12.120;2023-08-12T05:09:26;98239.13;;;21.19;100.00
17635;BME280;8936;49.010;12.120;2023-08-12T05:11:52;98245.69;;;21.18;100.00
17635;BME280;8936;49.010;12.120;2023-08-12T05:14:19;98250.16;;;21.23;100.00
17635;BME280;8936;49.010;12.120;2023-08-12T05:16:45;98246.47;;;21.19;100.00
17635;BME280;8936;49.010;12.120;2023-08-12T05:19:11;98243.75;;;21.01;100.00
17635;BME280;8936;49.010;12.120;2023-08-12T05:21:38;98251.31;;;20.62;100.00
17635;BME280;8936;49.010;12.120;2023-08-12T05:24:06;98249.53;;;20.40;100.00
17635;BME280;8936;49.010;12.120;2023-08-12T05:26:33;98249.47;;;20.06;100.00
17635;BME280;8936;49.010;12.120;2023-08-12T05:28:59;98247.59;;;19.58;100.00
17635;BME280;8936;49.010;12.120;2023-08-12T05:31:26;98244.59;;;19.37;100.00
17635;BME280;8936;49.010;12.120;2023-08-12T05:33:52;98250.53;;;19.17;100.00
17635;BME280;8936;49.010;12.120;2023-08-12T05:36:18;98255.16;;;19.17;100.00
17635;BME280;8936;49.010;12.120;2023-08-12T05:38:45;98250.94;;;19.02;100.00
17635;BME280;8936;49.010;12.120;2023-08-12T05:41:12;98257.78;;;19.00;100.00
17635;BME280;8936;49.010;12.120;2023-08-12T05:43:39;98255.34;;;18.98;100.00
17635;BME280;8936;49.010;12.120;2023-08-12T05:46:05;98265.81;;;19.75;100.00
17635;BME280;8936;49.010;12.120;2023-08-12T05:48:31;98250.81;;;19.69;100.00
17635;BME280;8936;49.010;12.120;2023-08-12T05:50:58;98252.06;;;19.71;100.00
17635;BME280;8936;49.010;12.120;2023-08-12T05:53:24;98246.63;;;20.02;100.00
17635;BME280;8936;49.010;12.120;2023-08-12T05:55:50;98242.03;;;20.37;100.00
17635;BME280;8936;49.010;12.120;2023-08-12T05:58:18;98242.53;;;20.65;100.00
17635;BME280;8936;49.010;12.120;2023-08-12T06:00:45;98244.44;;;20.73;100.00
17635;BME280;8936;49.010;12.120;2023-08-12T06:03:12;98236.75;;;20.83;100.00
17635;BME280;8936;49.010;12.120;2023-08-12T06:05:39;98242.88;;;20.55;100.00
17635;BME280;8936;49.010;12.120;2023-08-12T06:08:06;98242.22;;;20.40;100.00
17635;BME280;8936;49.010;12.120;2023-08-12T06:10:33;98239.03;;;20.38;100.00
17635;BME280;8936;49.010;12.120;2023-08-12T06:12:59;98240.31;;;20.32;100.00
17635;BME280;8936;49.010;12.120;2023-08-12T06:15:27;98244.16;;;20.49;100.00
17635;BME280;8936;49.010;12.120;2023-08-12T06:17:53;98240.94;;;20.64;100.00
17635;BME280;8936;49.010;12.120;2023-08-12T06:20:20;98235.00;;;20.87;100.00
17635;BME280;8936;49.010;12.120;2023-08-12T06:22:46;98233.72;;;20.93;100.00
17635;BME280;8936;49.010;12.120;2023-08-12T06:25:12;98232.97;;;20.67;100.00
17635;BME280;8936;49.010;12.120;2023-08-12T06:27:39;98219.53;;;20.88;100.00
17635;BME280;8936;49.010;12.120;2023-08-12T06:30:05;98219.97;;;21.07;100.00
17635;BME280;8936;49.010;12.120;2023-08-12T06:32:34;98219.81;;;21.12;100.00
17635;BME280;8936;49.010;12.120;2023-08-12T06:35:01;98212.13;;;21.23;100.00
17635;BME280;8936;49.010;12.120;2023-08-12T06:37:27;98222.84;;;21.19;100.00
17635;BME280;8936;49.010;12.120;2023-08-12T06:39:54;98219.66;;;21.00;100.00
17635;BME280;8936;49.010;12.120;2023-08-12T06:42:20;98222.38;;;21.00;100.00
17635;BME280;8936;49.010;12.120;2023-08-12T06:44:54;98227.63;;;21.22;100.00
17635;BME280;8936;49.010;12.120;2023-08-12T06:47:21;98220.88;;;21.28;100.00
17635;BME280;8936;49.010;12.120;2023-08-12T06:49:48;98220.03;;;21.36;100.00
17635;BME280;8936;49.010;12.120;2023-08-12T06:52:15;98222.06;;;21.57;100.00
17635;BME280;8936;49.010;12.120;2023-08-12T06:54:41;98207.41;;;21.70;100.00
17635;BME280;8936;49.010;12.120;2023-08-12T06:57:07;98205.00;;;21.47;100.00
17635;BME280;8936;49.010;12.120;2023-08-12T06:59:34;98205.56;;;21.62;100.00
17635;BME280;8936;49.010;12.120;2023-08-12T07:02:00;98201.97;;;21.70;100.00
17635;BME280;8936;49.010;12.120;2023-08-12T07:04:26;98201.44;;;21.56;100.00
17635;BME280;8936;49.010;12.120;2023-08-12T07:06:54;98195.81;;;21.61;100.00
17635;BME280;8936;49.010;12.120;2023-08-12T07:09:21;98201.44;;;21.85;100.00
17635;BME280;8936;49.010;12.120;2023-08-12T07:11:47;98204.53;;;21.75;100.00
17635;BME280;8936;49.010;12.120;2023-08-12T07:14:13;98211.84;;;21.83;100.00
17635;BME280;8936;49.010;12.120;2023-08-12T07:16:40;98209.31;;;21.78;100.00
17635;BME280;8936;49.010;12.120;2023-08-12T07:19:06;98208.81;;;21.84;100.00
17635;BME280;8936;49.010;12.120;2023-08-12T07:21:32;98215.19;;;21.88;100.00
17635;BME280;8936;49.010;12.120;2023-08-12T07:24:00;98211.63;;;21.96;100.00
17635;BME280;8936;49.010;12.120;2023-08-12T07:26:26;98214.56;;;22.12;100.00
17635;BME280;8936;49.010;12.120;2023-08-12T07:28:53;98210.59;;;22.30;100.00
17635;BME280;8936;49.010;12.120;2023-08-12T07:31:19;98222.22;;;22.19;100.00
17635;BME280;8936;49.010;12.120;2023-08-12T07:33:45;98215.97;;;22.18;100.00
17635;BME280;8936;49.010;12.120;2023-08-12T07:36:12;98212.75;;;22.16;100.00
17635;BME280;8936;49.010;12.120;2023-08-12T07:38:38;98201.16;;;22.07;100.00
17635;BME280;8936;49.010;12.120;2023-08-12T07:41:06;98211.38;;;22.10;100.00
17635;BME280;8936;49.010;12.120;2023-08-12T07:43:32;98207.81;;;22.18;100.00
17635;BME280;8936;49.010;12.120;2023-08-12T07:45:59;98206.41;;;22.33;100.00
17635;BME280;8936;49.010;12.120;2023-08-12T07:48:25;98207.94;;;22.42;100.00
17635;BME280;8936;49.010;12.120;2023-08-12T07:50:54;98206.91;;;22.47;100.00
17635;BME280;8936;49.010;12.120;2023-08-12T07:53:21;98197.19;;;22.46;100.00
17635;BME280;8936;49.010;12.120;2023-08-12T07:55:47;98190.84;;;22.54;100.00
17635;BME280;8936;49.010;12.120;2023-08-12T07:58:15;98190.69;;;22.59;100.00
17635;BME280;8936;49.010;12.120;2023-08-12T08:00:41;98183.25;;;22.68;100.00
17635;BME280;8936;49.010;12.120;2023-08-12T08:03:07;98188.50;;;22.85;100.00
17635;BME280;8936;49.010;12.120;2023-08-12T08:05:34;98185.91;;;22.89;100.00
17635;BME280;8936;49.010;12.120;2023-08-12T08:08:00;98179.34;;;22.90;100.00
17635;BME280;8936;49.010;12.120;2023-08-12T08:10:26;98192.03;;;22.86;100.00
17635;BME280;8936;49.010;12.120;2023-08-12T08:12:53;98201.63;;;23.04;100.00
17635;BME280;8936;49.010;12.120;2023-08-12T08:15:20;98195.63;;;23.10;100.00
17635;BME280;8936;49.010;12.120;2023-08-12T08:17:47;98187.09;;;23.12;100.00
17635;BME280;8936;49.010;12.120;2023-08-12T08:20:13;98187.81;;;23.33;100.00
17635;BME280;8936;49.010;12.120;2023-08-12T08:22:39;98186.91;;;23.29;100.00
17635;BME280;8936;49.010;12.120;2023-08-12T08:25:06;98186.78;;;23.38;100.00
17635;BME280;8936;49.010;12.120;2023-08-12T08:27:33;98179.00;;;23.48;100.00
17635;BME280;8936;49.010;12.120;2023-08-12T08:29:59;98170.03;;;23.48;100.00
17635;BME280;8936;49.010;12.120;2023-08-12T08:32:27;98176.97;;;23.45;100.00
17635;BME280;8936;49.010;12.120;2023-08-12T08:34:53;98187.41;;;23.43;100.00
17635;BME280;8936;49.010;12.120;2023-08-12T08:37:19;98188.44;;;23.51;100.00
17635;BME280;8936;49.010;12.120;2023-08-12T08:39:46;98178.09;;;23.69;100.00
17635;BME280;8936;49.010;12.120;2023-08-12T08:42:12;98172.50;;;23.77;100.00
17635;BME280;8936;49.010;12.120;2023-08-12T08:44:43;98182.38;;;23.94;100.00
17635;BME280;8936;49.010;12.120;2023-08-12T08:47:11;98180.19;;;23.99;100.00
17635;BME280;8936;49.010;12.120;2023-08-12T08:49:40;98194.63;;;24.24;100.00
17635;BME280;8936;49.010;12.120;2023-08-12T08:52:07;98182.81;;;24.20;100.00
17635;BME280;8936;49.010;12.120;2023-08-12T08:54:34;98176.06;;;24.30;100.00
17635;BME280;8936;49.010;12.120;2023-08-12T08:57:00;98181.47;;;24.54;100.00
17635;BME280;8936;49.010;12.120;2023-08-12T08:59:28;98192.97;;;24.47;100.00
17635;BME280;8936;49.010;12.120;2023-08-12T09:01:54;98189.00;;;24.45;100.00
17635;BME280;8936;49.010;12.120;2023-08-12T09:04:21;98183.53;;;24.45;100.00
17635;BME280;8936;49.010;12.120;2023-08-12T09:06:50;98176.78;;;24.54;100.00
17635;BME280;8936;49.010;12.120;2023-08-12T09:09:17;98182.59;;;24.53;100.00
17635;BME280;8936;49.010;12.120;2023-08-12T09:11:45;98183.41;;;24.53;100.00
17635;BME280;8936;49.010;12.120;2023-08-12T09:14:13;98171.72;;;24.68;100.00
17635;BME280;8936;49.010;12.120;2023-08-12T09:16:40;98161.44;;;24.78;100.00
17635;BME280;8936;49.010;12.120;2023-08-12T09:19:06;98154.59;;;24.84;100.00
17635;BME280;8936;49.010;12.120;2023-08-12T09:21:32;98166.41;;;24.88;100.00
17635;BME280;8936;49.010;12.120;2023-08-12T09:24:01;98163.00;;;24.91;100.00
17635;BME280;8936;49.010;12.120;2023-08-12T09:26:28;98163.84;;;24.95;100.00
17635;BME280;8936;49.010;12.120;2023-08-12T09:28:55;98160.63;;;25.05;100.00
17635;BME280;8936;49.010;12.120;2023-08-12T09:31:22;98168.00;;;25.04;100.00
17635;BME280;8936;49.010;12.120;2023-08-12T09:33:49;98170.56;;;25.13;100.00
17635;BME280;8936;49.010;12.120;2023-08-12T09:36:15;98169.91;;;25.16;100.00
17635;BME280;8936;49.010;12.120;2023-08-12T09:38:42;98156.84;;;25.25;100.00
17635;BME280;8936;49.010;12.120;2023-08-12T09:41:10;98163.78;;;25.22;100.00
17635;BME280;8936;49.010;12.120;2023-08-12T09:43:39;98160.34;;;25.41;100.00
17635;BME280;8936;49.010;12.120;2023-08-12T09:46:06;98154.53;;;25.43;98.82
17635;BME280;8936;49.010;12.120;2023-08-12T09:48:32;98155.34;;;25.59;97.19
17635;BME280;8936;49.010;12.120;2023-08-12T09:50:58;98157.00;;;25.63;98.06
17635;BME280;8936;49.010;12.120;2023-08-12T09:53:25;98152.56;;;25.90;96.66
17635;BME280;8936;49.010;12.120;2023-08-12T09:55:53;98151.19;;;26.00;97.18
17635;BME280;8936;49.010;12.120;2023-08-12T09:58:22;98150.03;;;26.01;94.70
17635;BME280;8936;49.010;12.120;2023-08-12T10:00:49;98147.59;;;25.96;93.36
17635;BME280;8936;49.010;12.120;2023-08-12T10:03:16;98152.91;;;25.89;94.72
17635;BME280;8936;49.010;12.120;2023-08-12T10:05:43;98153.31;;;25.91;91.84
17635;BME280;8936;49.010;12.120;2023-08-12T10:08:10;98159.88;;;25.86;93.08
17635;BME280;8936;49.010;12.120;2023-08-12T10:10:37;98159.97;;;25.90;91.94
17635;BME280;8936;49.010;12.120;2023-08-12T10:13:04;98167.97;;;25.98;90.24
17635;BME280;8936;49.010;12.120;2023-08-12T10:15:34;98158.31;;;26.04;90.34
17635;BME280;8936;49.010;12.120;2023-08-12T10:18:00;98150.34;;;26.15;90.72
17635;BME280;8936;49.010;12.120;2023-08-12T10:20:27;98151.88;;;25.77;95.98
17635;BME280;8936;49.010;12.120;2023-08-12T10:22:53;98149.31;;;26.04;93.56
17635;BME280;8936;49.010;12.120;2023-08-12T10:25:20;98153.19;;;26.18;89.11
17635;BME280;8936;49.010;12.120;2023-08-12T10:27:47;98135.84;;;26.30;91.33
17635;BME280;8936;49.010;12.120;2023-08-12T10:30:14;98140.59;;;26.33;92.28
17635;BME280;8936;49.010;12.120;2023-08-12T10:32:42;98141.25;;;26.26;90.62
17635;BME280;8936;49.010;12.120;2023-08-12T10:35:08;98139.72;;;26.29;90.88
17635;BME280;8936;49.010;12.120;2023-08-12T10:37:35;98130.00;;;26.32;89.67
17635;BME280;8936;49.010;12.120;2023-08-12T10:40:02;98135.09;;;26.14;93.92
17635;BME280;8936;49.010;12.120;2023-08-12T10:42:40;98124.03;;;26.26;92.54
17635;BME280;8936;49.010;12.120;2023-08-12T10:45:07;98118.81;;;26.40;92.46
17635;BME280;8936;49.010;12.120;2023-08-12T10:47:37;98123.56;;;26.43;92.63
17635;BME280;8936;49.010;12.120;2023-08-12T10:50:05;98127.47;;;26.42;92.04
17635;BME280;8936;49.010;12.120;2023-08-12T10:52:33;98120.63;;;26.52;91.46
17635;BME280;8936;49.010;12.120;2023-08-12T10:55:19;98119.75;;;26.48;93.44
17635;BME280;8936;49.010;12.120;2023-08-12T10:57:46;98118.00;;;26.01;98.81
17635;BME280;8936;49.010;12.120;2023-08-12T11:00:13;98122.00;;;26.42;93.42
17635;BME280;8936;49.010;12.120;2023-08-12T11:02:40;98126.28;;;26.62;90.97
17635;BME280;8936;49.010;12.120;2023-08-12T11:05:11;98126.13;;;26.74;89.36
17635;BME280;8936;49.010;12.120;2023-08-12T11:07:38;98123.72;;;26.50;92.51
17635;BME280;8936;49.010;12.120;2023-08-12T11:10:06;98111.63;;;26.74;86.91
17635;BME280;8936;49.010;12.120;2023-08-12T11:12:36;98115.16;;;26.94;84.99
17635;BME280;8936;49.010;12.120;2023-08-12T11:15:03;98113.38;;;26.82;86.57
17635;BME280;8936;49.010;12.120;2023-08-12T11:17:33;98115.75;;;26.83;86.82
17635;BME280;8936;49.010;12.120;2023-08-12T11:20:00;98108.16;;;26.77;87.63
17635;BME280;8936;49.010;12.120;2023-08-12T11:22:31;98106.56;;;26.95;87.58
17635;BME280;8936;49.010;12.120;2023-08-12T11:24:57;98103.72;;;27.11;88.06
17635;BME280;8936;49.010;12.120;2023-08-12T11:27:24;98104.72;;;27.25;89.20
17635;BME280;8936;49.010;12.120;2023-08-12T11:29:50;98104.72;;;27.25;88.88
17635;BME280;8936;49.010;12.120;2023-08-12T11:32:17;98096.97;;;27.31;89.28
17635;BME280;8936;49.010;12.120;2023-08-12T11:34:43;98087.06;;;27.23;87.57
17635;BME280;8936;49.010;12.120;2023-08-12T11:37:10;98093.44;;;27.30;88.76
17635;BME280;8936;49.010;12.120;2023-08-12T11:39:38;98079.84;;;27.38;86.98
17635;BME280;8936;49.010;12.120;2023-08-12T11:42:04;98079.78;;;27.34;87.66
17635;BME280;8936;49.010;12.120;2023-08-12T11:44:31;98073.56;;;27.37;89.49
17635;BME280;8936;49.010;12.120;2023-08-12T11:46:57;98076.91;;;27.50;89.82
17635;BME280;8936;49.010;12.120;2023-08-12T11:49:23;98069.16;;;27.55;87.70
17635;BME280;8936;49.010;12.120;2023-08-12T11:51:50;98071.78;;;27.74;85.44
17635;BME280;8936;49.010;12.120;2023-08-12T11:54:16;98078.13;;;27.78;86.22
17635;BME280;8936;49.010;12.120;2023-08-12T11:56:44;98066.28;;;27.74;85.58
17635;BME280;8936;49.010;12.120;2023-08-12T11:59:10;98061.81;;;27.63;84.09
17635;BME280;8936;49.010;12.120;2023-08-12T12:01:37;98049.84;;;27.48;88.22
17635;BME280;8936;49.010;12.120;2023-08-12T12:04:03;98057.31;;;27.77;87.70
17635;BME280;8936;49.010;12.120;2023-08-12T12:06:31;98060.56;;;27.86;85.28
17635;BME280;8936;49.010;12.120;2023-08-12T12:08:59;98057.91;;;27.94;85.24
17635;BME280;8936;49.010;12.120;2023-08-12T12:11:26;98051.72;;;28.00;86.59
17635;BME280;8936;49.010;12.120;2023-08-12T12:13:54;98048.03;;;27.89;87.22
17635;BME280;8936;49.010;12.120;2023-08-12T12:16:20;98052.41;;;28.23;86.21
17635;BME280;8936;49.010;12.120;2023-08-12T12:18:46;98050.06;;;28.22;82.22
17635;BME280;8936;49.010;12.120;2023-08-12T12:21:15;98045.63;;;28.14;84.47
17635;BME280;8936;49.010;12.120;2023-08-12T12:23:46;98042.28;;;27.68;91.00
17635;BME280;8936;49.010;12.120;2023-08-12T12:26:12;98031.75;;;28.03;87.42
17635;BME280;8936;49.010;12.120;2023-08-12T12:28:39;98030.75;;;28.15;87.09
17635;BME280;8936;49.010;12.120;2023-08-12T12:31:06;98039.31;;;28.10;85.14
17635;BME280;8936;49.010;12.120;2023-08-12T12:33:34;98039.25;;;28.39;84.26
17635;BME280;8936;49.010;12.120;2023-08-12T12:36:00;98025.59;;;28.47;80.43
17635;BME280;8936;49.010;12.120;2023-08-12T12:38:27;98024.88;;;28.16;82.16
17635;BME280;8936;49.010;12.120;2023-08-12T12:40:53;98018.47;;;28.42;83.05
17635;BME280;8936;49.010;12.120;2023-08-12T12:43:19;98019.78;;;28.55;84.89
17635;BME280;8936;49.010;12.120;2023-08-12T12:45:46;98023.66;;;28.47;82.93
17635;BME280;8936;49.010;12.120;2023-08-12T12:48:13;98013.13;;;28.56;80.91
17635;BME280;8936;49.010;12.120;2023-08-12T12:50:40;98008.66;;;28.81;80.23
17635;BME280;8936;49.010;12.120;2023-08-12T12:53:06;98002.47;;;28.91;78.02